Time;durP1;ratioP1;P1;durP2;ratioP2;P2;SDS_P1;SDS_P2;PMS_P1;PMS_P2;Temp;Humidity;BMP_temperature;BMP_pressure;BME280_temperature;BME280_humidity;BME280_pressure;Samples;Min_cycle;Max_cycle;Signal;HPM_P1;HPM_P2
2023/07/10 00:01:00;;;;;;;2.92;2.63;;;;;;;22.27;68.49;98550.59;5095120;28;20528;-58
2023/07/10 00:03:28;;;;;;;2.92;2.67;;;;;;;22.18;68.61;98539.28;5094836;28;20185;-58
2023/07/10 00:05:54;;;;;;;2.70;2.50;;;;;;;22.24;68.05;98558.84;5094980;28;20193;-58
2023/07/10 00:08:20;;;;;;;3.55;2.40;;;;;;;22.17;68.45;98555.28;5095011;28;20188;-58
2023/07/10 00:10:45;;;;;;;5.55;2.50;;;;;;;22.05;68.64;98535.56;5094929;28;20203;-58
2023/07/10 00:13:12;;;;;;;4.50;3.17;;;;;;;22.07;68.42;98530.94;5094820;28;20278;-58
2023/07/10 00:15:38;;;;;;;2.65;2.45;;;;;;;22.21;67.71;98551.28;5094876;28;20187;-58
2023/07/10 00:18:12;;;;;;;3.00;2.50;;;;;;;22.25;66.66;98553.41;5094810;28;20179;-58
2023/07/10 00:20:37;;;;;;;3.60;2.90;;;;;;;22.43;66.24;98561.03;5094855;28;20251;-57
2023/07/10 00:23:03;;;;;;;3.95;2.30;;;;;;;22.50;66.99;98569.91;5094431;28;20271;-58
2023/07/10 00:25:28;;;;;;;4.43;2.78;;;;;;;22.54;65.84;98571.19;5094341;28;20219;-58
2023/07/10 00:27:54;;;;;;;4.85;2.70;;;;;;;22.47;65.52;98554.44;5094595;28;20172;-58
2023/07/10 00:30:22;;;;;;;2.90;2.70;;;;;;;22.43;65.67;98553.13;5094560;28;20616;-58
2023/07/10 00:32:52;;;;;;;3.60;2.45;;;;;;;22.52;65.75;98566.13;5094421;28;20222;-57
2023/07/10 00:35:23;;;;;;;3.78;2.97;;;;;;;22.53;65.86;98566.91;5094210;28;20171;-57
2023/07/10 00:38:00;;;;;;;2.83;2.63;;;;;;;22.55;65.38;98562.31;5051721;28;20643;-57
2023/07/10 00:40:33;;;;;;;2.88;2.60;;;;;;;22.48;65.57;98566.63;5050739;28;20243;-57
2023/07/10 00:43:10;;;;;;;2.67;2.47;;;;;;;22.49;65.87;98571.72;5051641;28;20193;-57
2023/07/10 00:45:35;;;;;;;4.53;2.53;;;;;;;22.48;65.26;98566.63;5052022;28;20184;-58
2023/07/10 00:48:11;;;;;;;3.33;2.63;;;;;;;22.38;65.76;98563.38;5051498;28;20201;-58
2023/07/10 00:50:45;;;;;;;3.20;2.60;;;;;;;22.35;66.39;98553.16;5031539;28;20196;-58
2023/07/10 00:53:25;;;;;;;5.03;2.40;;;;;;;22.22;65.98;98545.03;5031607;28;20256;-58
2023/07/10 00:55:54;;;;;;;2.70;2.50;;;;;;;22.24;66.51;98554.41;5031643;28;20207;-58
2023/07/10 00:58:39;;;;;;;2.97;2.78;;;;;;;22.19;66.05;98553.28;5031521;28;20773;-56
2023/07/10 01:01:06;;;;;;;4.70;2.65;;;;;;;22.11;66.40;98543.63;5011506;28;20186;-57
2023/07/10 01:03:33;;;;;;;4.72;2.83;;;;;;;22.22;66.70;98550.28;5011550;28;20229;-57
2023/07/10 01:06:07;;;;;;;3.70;2.38;;;;;;;22.23;65.56;98554.56;5011814;28;20198;-57
2023/07/10 01:08:32;;;;;;;2.80;2.53;;;;;;;22.04;65.39;98524.19;5026996;28;20196;-58
2023/07/10 01:10:58;;;;;;;2.60;2.40;;;;;;;22.27;65.70;98547.97;5030966;28;20194;-58
2023/07/10 01:13:24;;;;;;;2.80;2.40;;;;;;;22.27;65.96;98551.41;5031113;28;20391;-58
2023/07/10 01:15:49;;;;;;;3.78;2.53;;;;;;;22.14;65.97;98539.81;5031105;28;20189;-58
2023/07/10 01:18:17;;;;;;;4.38;2.67;;;;;;;22.21;66.24;98535.47;5031052;28;20562;-58
2023/07/10 01:20:48;;;;;;;2.83;2.53;;;;;;;22.10;65.24;98535.88;5028448;28;20189;-58
2023/07/10 01:23:15;;;;;;;3.05;2.78;;;;;;;21.99;65.06;98525.72;5011219;28;20218;-58
2023/07/10 01:25:53;;;;;;;4.35;2.72;;;;;;;22.16;65.45;98551.81;5011117;28;20234;-57
2023/07/10 01:28:20;;;;;;;2.35;2.20;;;;;;;22.18;65.69;98543.72;5011118;28;20182;-57
2023/07/10 01:30:49;;;;;;;2.90;2.58;;;;;;;22.01;66.83;98534.28;5011039;28;20240;-58
2023/07/10 01:33:23;;;;;;;3.90;2.60;;;;;;;21.83;68.97;98541.63;5030466;28;20757;-57
2023/07/10 01:35:53;;;;;;;2.90;2.63;;;;;;;21.74;68.18;98542.66;4991387;28;20187;-57
2023/07/10 01:38:19;;;;;;;2.95;2.67;;;;;;;21.57;68.51;98518.16;4991301;28;20183;-58
2023/07/10 01:40:51;;;;;;;6.00;2.72;;;;;;;21.75;68.21;98539.88;5010918;28;20560;-58
2023/07/10 01:43:16;;;;;;;2.67;2.42;;;;;;;21.77;67.40;98552.84;5030644;28;20623;-58
2023/07/10 01:45:44;;;;;;;3.22;2.80;;;;;;;21.79;67.41;98553.50;5030652;28;20182;-57
2023/07/10 01:48:12;;;;;;;3.20;2.90;;;;;;;21.75;66.79;98534.59;5030454;28;20602;-57
2023/07/10 01:50:38;;;;;;;3.88;2.65;;;;;;;21.78;66.57;98528.13;5030551;28;20197;-57
2023/07/10 01:53:04;;;;;;;3.20;2.10;;;;;;;21.97;66.77;98551.44;5030111;28;20182;-58
2023/07/10 01:55:38;;;;;;;3.50;2.80;;;;;;;21.82;65.43;98513.63;5030519;28;20190;-57
2023/07/10 01:58:04;;;;;;;2.80;2.60;;;;;;;21.87;66.01;98542.91;5030422;28;20250;-58
2023/07/10 02:00:29;;;;;;;2.75;2.50;;;;;;;21.80;66.33;98541.97;5030331;28;20276;-58
2023/07/10 02:02:54;;;;;;;3.05;2.75;;;;;;;21.82;67.32;98543.44;5030289;28;20218;-58
2023/07/10 02:05:20;;;;;;;2.90;2.70;;;;;;;21.74;67.36;98542.66;5010443;28;20240;-57
2023/07/10 02:07:45;;;;;;;3.42;2.70;;;;;;;21.46;69.34;98552.78;5065936;28;20214;-57
2023/07/10 02:10:11;;;;;;;3.10;2.85;;;;;;;21.34;70.32;98546.22;5053336;28;20278;-57
2023/07/10 02:12:36;;;;;;;3.55;2.55;;;;;;;21.34;70.50;98550.66;5070083;28;20184;-57
2023/07/10 02:15:01;;;;;;;2.90;2.65;;;;;;;21.33;70.42;98549.03;5070017;28;20190;-58
2023/07/10 02:17:27;;;;;;;4.28;2.60;;;;;;;21.23;69.11;98514.19;5029998;28;20259;-57
2023/07/10 02:19:52;;;;;;;4.07;2.55;;;;;;;21.43;69.16;98533.84;5030033;28;20197;-57
2023/07/10 02:22:18;;;;;;;8.68;2.67;;;;;;;21.42;69.23;98533.03;5029924;28;20297;-58
2023/07/10 02:24:43;;;;;;;7.70;2.83;;;;;;;21.43;68.64;98537.31;5029918;28;20193;-57
2023/07/10 02:27:09;;;;;;;2.38;2.28;;;;;;;21.34;68.62;98534.88;5029992;28;20185;-58
2023/07/10 02:29:34;;;;;;;2.97;2.58;;;;;;;21.21;69.15;98518.81;5029877;28;20197;-58
2023/07/10 02:32:02;;;;;;;3.05;2.70;;;;;;;21.32;68.43;98528.97;5030242;28;20185;-57
2023/07/10 02:34:27;;;;;;;2.78;2.50;;;;;;;21.42;68.61;98543.56;5029902;28;20177;-57
2023/07/10 02:36:52;;;;;;;3.65;2.33;;;;;;;21.39;68.70;98543.91;5044439;28;20178;-57
2023/07/10 02:39:18;;;;;;;2.92;2.72;;;;;;;21.30;68.71;98523.88;5049787;28;20177;-57
2023/07/10 02:41:43;;;;;;;4.72;3.35;;;;;;;21.30;69.17;98523.88;5049708;28;20185;-58
2023/07/10 02:44:09;;;;;;;4.28;2.80;;;;;;;21.28;68.47;98519.75;5049749;28;20691;-58
2023/07/10 02:46:34;;;;;;;4.25;2.75;;;;;;;21.37;68.51;98543.25;5009942;28;20190;-57
2023/07/10 02:49:00;;;;;;;3.03;2.83;;;;;;;21.29;68.77;98531.94;5009833;28;20222;-57
2023/07/10 02:51:25;;;;;;;3.58;2.30;;;;;;;21.31;69.68;98535.19;5009956;28;20226;-57
2023/07/10 02:53:52;;;;;;;3.10;2.80;;;;;;;21.01;70.43;98517.50;5011727;28;20212;-57
2023/07/10 02:56:18;;;;;;;2.97;2.53;;;;;;;21.04;70.36;98528.53;5029692;28;20329;-57
2023/07/10 02:58:43;;;;;;;3.75;2.50;;;;;;;20.95;70.48;98518.19;5029672;28;20244;-57
2023/07/10 03:01:08;;;;;;;5.18;2.60;;;;;;;21.21;69.88;98553.81;5029657;28;20190;-57
2023/07/10 03:03:34;;;;;;;3.15;2.85;;;;;;;21.12;69.82;98546.94;5029545;28;20210;-58
2023/07/10 03:06:01;;;;;;;4.90;2.85;;;;;;;20.98;70.70;98523.13;5033484;28;20586;-58
2023/07/10 03:08:27;;;;;;;2.67;2.47;;;;;;;21.11;71.18;98555.00;5033519;28;20188;-58
2023/07/10 03:11:03;;;;;;;3.13;2.92;;;;;;;21.08;71.27;98550.06;5033557;28;20181;-58
2023/07/10 03:13:29;;;;;;;2.78;2.58;;;;;;;20.92;71.20;98519.34;5033639;28;20598;-58
2023/07/10 03:16:03;;;;;;;4.60;2.50;;;;;;;21.07;71.28;98549.25;5033426;28;20181;-58
2023/07/10 03:18:28;;;;;;;3.38;2.70;;;;;;;21.12;71.25;98546.13;5088390;28;20183;-57
2023/07/10 03:20:54;;;;;;;3.25;2.67;;;;;;;20.89;71.75;98540.72;5095534;28;20176;-57
2023/07/10 03:23:20;;;;;;;2.88;2.63;;;;;;;20.88;72.56;98559.28;5095759;28;20287;-57
2023/07/10 03:25:45;;;;;;;3.50;3.17;;;;;;;20.87;72.78;98568.97;5095774;28;20195;-58
2023/07/10 03:28:10;;;;;;;3.30;2.90;;;;;;;20.84;72.78;98571.09;5095761;28;20571;-57
2023/07/10 03:30:36;;;;;;;3.33;2.83;;;;;;;20.83;72.80;98566.84;5095691;28;20255;-57
2023/07/10 03:33:01;;;;;;;3.33;2.90;;;;;;;20.89;72.93;98567.03;5095683;28;20646;-57
2023/07/10 03:35:26;;;;;;;4.95;2.40;;;;;;;20.97;73.02;98579.38;5095356;28;20201;-57
2023/07/10 03:37:52;;;;;;;2.60;2.40;;;;;;;20.94;72.43;98563.91;5095580;28;20548;-57
2023/07/10 03:40:17;;;;;;;2.95;2.67;;;;;;;21.09;72.18;98583.31;5095557;28;20168;-57
2023/07/10 03:42:43;;;;;;;2.78;2.53;;;;;;;20.94;72.70;98561.28;5095430;28;20275;-57
2023/07/10 03:45:08;;;;;;;2.90;2.70;;;;;;;21.08;72.58;98573.75;5095443;28;20168;-57
2023/07/10 03:47:34;;;;;;;3.22;2.67;;;;;;;21.09;72.66;98581.47;5095551;28;20204;-57
2023/07/10 03:49:59;;;;;;;3.55;3.25;;;;;;;21.01;72.58;98564.88;5095422;28;20160;-57
2023/07/10 03:52:25;;;;;;;3.42;2.67;;;;;;;21.18;72.75;98590.19;5095327;28;20172;-57
2023/07/10 03:54:50;;;;;;;3.40;2.70;;;;;;;20.88;73.30;98567.16;5095255;28;20197;-57
2023/07/10 03:57:15;;;;;;;2.78;2.58;;;;;;;20.98;73.31;98597.59;5094967;28;20266;-57
2023/07/10 03:59:41;;;;;;;3.20;2.90;;;;;;;20.82;73.88;98580.97;5094875;28;20176;-57
2023/07/10 04:02:06;;;;;;;4.07;2.80;;;;;;;20.75;73.83;98577.38;5094762;28;20692;-57
2023/07/10 04:04:31;;;;;;;3.53;2.80;;;;;;;20.90;73.93;98604.66;5095054;28;20183;-57
2023/07/10 04:06:57;;;;;;;3.50;2.85;;;;;;;20.90;73.44;98599.41;5094767;28;20225;-57
2023/07/10 04:09:22;;;;;;;3.10;2.90;;;;;;;20.74;73.81;98579.16;5094897;28;20554;-57
2023/07/10 04:11:48;;;;;;;3.00;2.80;;;;;;;20.78;73.69;98575.22;5094891;28;20172;-57
2023/07/10 04:14:13;;;;;;;3.03;2.83;;;;;;;21.03;73.94;98605.03;5072135;28;20191;-58
2023/07/10 04:16:39;;;;;;;3.70;2.97;;;;;;;21.11;73.39;98602.38;5071921;28;20192;-57
2023/07/10 04:19:04;;;;;;;3.58;2.83;;;;;;;21.26;72.60;98611.22;5072251;28;20192;-57
2023/07/10 04:21:31;;;;;;;3.28;2.97;;;;;;;21.41;72.00;98605.13;5072461;28;20186;-57
2023/07/10 04:23:58;;;;;;;2.80;2.60;;;;;;;21.47;71.22;98595.72;5071985;28;20212;-57
2023/07/10 04:26:33;;;;;;;4.22;2.65;;;;;;;21.59;71.54;98597.00;5051883;28;20197;-57
2023/07/10 04:29:01;;;;;;;4.53;2.80;;;;;;;21.64;71.29;98602.59;5051535;28;20267;-58
2023/07/10 04:31:27;;;;;;;3.15;2.67;;;;;;;21.65;71.06;98594.53;5051895;28;20197;-58
2023/07/10 04:33:53;;;;;;;3.60;2.95;;;;;;;21.71;70.65;98614.09;5051806;28;20260;-57
2023/07/10 04:36:19;;;;;;;3.55;2.83;;;;;;;21.43;72.15;98612.84;5051824;28;20185;-57
2023/07/10 04:38:45;;;;;;;3.88;2.67;;;;;;;21.49;71.63;98594.56;5051688;28;20239;-56
2023/07/10 04:41:13;;;;;;;2.53;2.33;;;;;;;21.52;71.89;98596.03;5051802;28;20201;-57
2023/07/10 04:43:38;;;;;;;4.40;2.83;;;;;;;21.65;71.70;98596.31;5051682;28;20607;-57
2023/07/10 04:46:07;;;;;;;3.17;2.97;;;;;;;21.84;72.14;98609.13;5051645;28;20381;-57
2023/07/10 04:48:33;;;;;;;4.28;2.90;;;;;;;21.85;72.13;98592.34;5051535;28;20195;-57
2023/07/10 04:51:03;;;;;;;3.25;3.00;;;;;;;22.08;71.15;98614.31;5051595;28;20276;-57
2023/07/10 04:53:30;;;;;;;4.18;2.97;;;;;;;22.20;70.47;98610.28;5051594;28;20264;-58
2023/07/10 04:55:56;;;;;;;3.00;2.70;;;;;;;22.35;69.77;98603.28;5051543;28;20181;-58
2023/07/10 04:58:25;;;;;;;4.25;2.63;;;;;;;22.57;68.99;98603.34;5051538;28;20714;-58
2023/07/10 05:00:54;;;;;;;4.35;2.90;;;;;;;22.75;68.49;98608.31;5051400;28;20785;-58
2023/07/10 05:03:20;;;;;;;2.70;2.50;;;;;;;22.93;66.86;98593.00;5064217;28;20348;-58
2023/07/10 05:05:58;;;;;;;12.65;2.78;;;;;;;23.03;65.76;98591.75;5093649;28;20211;-57
2023/07/10 05:08:26;;;;;;;4.72;2.65;;;;;;;23.19;65.83;98617.22;5093643;28;20186;-57
2023/07/10 05:10:54;;;;;;;2.75;2.55;;;;;;;23.13;65.75;98607.34;5093822;28;20187;-58
2023/07/10 05:13:22;;;;;;;3.33;2.70;;;;;;;23.17;64.74;98619.19;5093725;28;20176;-58
2023/07/10 05:15:48;;;;;;;2.60;2.40;;;;;;;23.04;65.81;98593.41;5093473;28;20266;-58
2023/07/10 05:18:14;;;;;;;3.17;2.85;;;;;;;23.14;65.03;98609.78;5093680;28;20259;-57
2023/07/10 05:20:42;;;;;;;3.72;2.70;;;;;;;23.18;66.13;98592.63;5093642;28;20180;-58
2023/07/10 05:23:08;;;;;;;4.65;2.75;;;;;;;23.41;66.55;98617.16;5093401;28;20199;-58
2023/07/10 05:25:33;;;;;;;2.80;2.60;;;;;;;23.43;66.54;98603.78;5093255;28;20182;-58
2023/07/10 05:28:01;;;;;;;3.70;2.75;;;;;;;23.53;67.11;98617.56;5092742;28;20615;-57
2023/07/10 05:30:26;;;;;;;3.47;3.17;;;;;;;23.62;67.13;98619.91;5093382;28;20191;-58
2023/07/10 05:32:52;;;;;;;4.20;2.97;;;;;;;23.81;66.38;98622.00;5093692;28;20172;-58
2023/07/10 05:35:17;;;;;;;5.55;3.15;;;;;;;24.03;64.71;98632.50;5093316;28;20233;-58
2023/07/10 05:37:43;;;;;;;5.75;3.03;;;;;;;24.10;64.13;98608.78;5093286;28;20241;-58
2023/07/10 05:40:08;;;;;;;7.68;3.13;;;;;;;24.31;63.17;98630.00;5093237;28;20199;-58
2023/07/10 05:42:34;;;;;;;5.35;3.42;;;;;;;24.37;62.94;98616.84;5093162;28;20202;-58
2023/07/10 05:44:59;;;;;;;12.52;3.80;;;;;;;24.47;62.15;98598.84;5093181;28;20179;-58
2023/07/10 05:47:24;;;;;;;7.05;2.90;;;;;;;24.76;61.54;98622.59;5093082;28;20637;-58
2023/07/10 05:49:50;;;;;;;8.25;3.33;;;;;;;24.90;60.01;98624.34;5093156;28;20690;-58
2023/07/10 05:52:15;;;;;;;4.05;3.03;;;;;;;24.85;60.27;98605.56;5093025;28;20176;-56
2023/07/10 05:54:41;;;;;;;4.60;2.95;;;;;;;25.05;60.65;98622.44;5092702;28;20195;-56
2023/07/10 05:57:06;;;;;;;3.97;2.72;;;;;;;25.04;60.43;98625.28;5092916;28;20549;-58
2023/07/10 05:59:32;;;;;;;2.88;2.55;;;;;;;25.22;59.32;98628.28;5092655;28;20183;-58
2023/07/10 06:01:57;;;;;;;3.00;2.70;;;;;;;25.18;60.04;98627.00;5092762;28;20179;-58
2023/07/10 06:04:23;;;;;;;4.25;2.20;;;;;;;25.25;59.22;98626.09;5030283;28;20190;-58
2023/07/10 06:06:48;;;;;;;2.25;2.15;;;;;;;25.22;59.53;98618.50;5010467;28;20284;-58
2023/07/10 06:09:14;;;;;;;2.70;2.50;;;;;;;25.28;59.74;98627.53;5010763;28;20657;-58
2023/07/10 06:11:40;;;;;;;2.78;2.55;;;;;;;25.34;59.81;98629.41;5010453;28;20190;-57
2023/07/10 06:14:06;;;;;;;2.78;2.58;;;;;;;25.36;59.82;98624.78;5010751;28;20182;-58
2023/07/10 06:16:31;;;;;;;4.40;2.72;;;;;;;25.35;59.19;98608.03;5010403;28;20209;-56
2023/07/10 06:18:57;;;;;;;2.97;2.78;;;;;;;25.61;58.85;98633.91;5010436;28;20272;-56
2023/07/10 06:21:22;;;;;;;5.85;2.83;;;;;;;25.49;58.93;98609.75;5010335;28;20329;-56
2023/07/10 06:23:47;;;;;;;2.80;2.45;;;;;;;25.72;58.40;98636.81;5010271;28;20194;-57
2023/07/10 06:26:13;;;;;;;2.72;2.53;;;;;;;25.65;57.50;98620.06;5010313;28;20194;-57
2023/07/10 06:28:38;;;;;;;6.20;2.97;;;;;;;25.80;57.19;98622.59;5010269;28;20738;-57
2023/07/10 06:31:07;;;;;;;2.65;2.45;;;;;;;25.92;56.67;98627.19;5010264;28;20182;-57
2023/07/10 06:33:33;;;;;;;2.83;2.63;;;;;;;25.80;56.82;98599.56;5010153;28;20226;-57
2023/07/10 06:35:59;;;;;;;4.15;2.60;;;;;;;25.87;56.71;98603.06;5010203;28;20208;-57
2023/07/10 06:38:25;;;;;;;3.95;2.88;;;;;;;26.05;56.76;98626.41;5025095;28;20201;-57
2023/07/10 06:40:51;;;;;;;3.15;2.80;;;;;;;26.19;56.76;98625.47;5016394;28;20234;-57
2023/07/10 06:43:20;;;;;;;2.58;2.38;;;;;;;26.27;56.60;98628.78;5069602;28;20212;-57
2023/07/10 06:45:47;;;;;;;3.08;2.78;;;;;;;26.30;56.74;98614.28;5069772;28;20291;-57
2023/07/10 06:48:13;;;;;;;2.90;2.70;;;;;;;26.44;56.00;98623.91;5069555;28;20188;-57
2023/07/10 06:50:38;;;;;;;2.67;2.47;;;;;;;26.70;54.17;98638.09;5069762;28;20275;-58
2023/07/10 06:53:04;;;;;;;2.83;2.47;;;;;;;26.67;54.21;98611.97;5069656;28;20292;-57
2023/07/10 06:55:30;;;;;;;3.50;2.70;;;;;;;26.81;53.97;98639.34;5069666;28;20630;-57
2023/07/10 06:57:56;;;;;;;4.03;3.20;;;;;;;26.63;53.91;98601.94;5069927;28;20662;-57
2023/07/10 07:00:22;;;;;;;4.57;2.60;;;;;;;26.74;53.99;98631.38;5069650;28;20208;-57
2023/07/10 07:02:47;;;;;;;3.10;2.80;;;;;;;26.66;54.13;98607.66;5069505;28;20205;-58
2023/07/10 07:05:13;;;;;;;2.42;2.33;;;;;;;26.79;53.96;98630.78;5069603;28;20189;-58
2023/07/10 07:07:39;;;;;;;3.83;2.55;;;;;;;26.83;54.07;98619.53;5069592;28;20180;-58
2023/07/10 07:10:08;;;;;;;3.42;2.42;;;;;;;26.75;54.54;98593.19;5069495;28;20196;-58
2023/07/10 07:12:34;;;;;;;3.30;2.78;;;;;;;26.88;54.29;98609.13;5069390;28;20188;-58
2023/07/10 07:14:59;;;;;;;2.83;2.58;;;;;;;26.99;53.70;98613.03;5069501;28;20192;-56
2023/07/10 07:17:25;;;;;;;3.78;2.83;;;;;;;27.03;53.38;98607.09;5072654;28;20258;-57
2023/07/10 07:19:50;;;;;;;4.70;2.70;;;;;;;26.97;54.38;98575.22;5092001;28;20168;-56
2023/07/10 07:22:16;;;;;;;5.13;2.83;;;;;;;27.23;54.76;98607.94;5091923;28;20219;-57
2023/07/10 07:24:42;;;;;;;4.03;2.80;;;;;;;27.18;52.13;98612.25;5091988;28;20237;-57
2023/07/10 07:27:07;;;;;;;4.28;2.67;;;;;;;27.33;49.23;98620.81;5091988;28;20168;-58
2023/07/10 07:29:33;;;;;;;4.45;2.95;;;;;;;27.39;47.67;98606.69;5049223;28;20775;-58
2023/07/10 07:31:59;;;;;;;2.83;2.63;;;;;;;27.50;46.38;98604.25;5029257;28;20197;-58
2023/07/10 07:34:24;;;;;;;2.80;2.60;;;;;;;27.69;46.40;98622.00;5029364;28;20281;-58
2023/07/10 07:36:51;;;;;;;3.75;2.97;;;;;;;27.81;46.35;98612.38;5029321;28;20247;-58
2023/07/10 07:39:17;;;;;;;2.58;2.38;;;;;;;27.82;44.82;98592.72;5029351;28;20240;-58
2023/07/10 07:41:43;;;;;;;2.20;2.10;;;;;;;28.03;45.22;98610.25;5029219;28;20616;-58
2023/07/10 07:44:09;;;;;;;3.97;2.30;;;;;;;27.95;45.18;98587.38;5029282;28;20210;-59
2023/07/10 07:46:34;;;;;;;2.10;2.00;;;;;;;28.15;44.89;98606.72;5029241;28;20190;-58
2023/07/10 07:48:59;;;;;;;2.70;2.33;;;;;;;28.28;42.80;98617.31;5029143;28;20193;-57
2023/07/10 07:51:25;;;;;;;2.05;1.83;;;;;;;28.38;42.15;98612.38;5031840;28;20193;-58
2023/07/10 07:54:03;;;;;;;4.20;2.42;;;;;;;28.46;43.28;98611.34;5032790;28;20201;-58
2023/07/10 07:56:28;;;;;;;2.45;2.20;;;;;;;28.36;42.93;98585.16;4993269;28;20187;-58
2023/07/10 07:58:54;;;;;;;2.53;2.20;;;;;;;28.55;42.07;98605.53;4993332;28;20187;-58
2023/07/10 08:01:19;;;;;;;4.35;2.28;;;;;;;28.53;42.60;98586.31;4993182;28;20233;-57
2023/07/10 08:03:44;;;;;;;2.83;2.45;;;;;;;28.57;42.82;98584.03;4993190;28;20352;-57
2023/07/10 08:06:10;;;;;;;2.40;2.20;;;;;;;28.73;42.58;98597.63;5000048;28;20189;-58
2023/07/10 08:08:35;;;;;;;3.78;2.38;;;;;;;28.70;42.02;98583.94;4993018;28;20206;-56
2023/07/10 08:11:01;;;;;;;2.22;2.10;;;;;;;28.82;41.13;98596.34;4993102;28;20270;-56
2023/07/10 08:13:26;;;;;;;2.22;2.10;;;;;;;28.83;42.04;98591.81;4973489;28;20235;-56
2023/07/10 08:15:51;;;;;;;3.13;2.65;;;;;;;28.76;42.24;98573.25;4973642;28;20239;-57
2023/07/10 08:18:17;;;;;;;5.75;2.28;;;;;;;28.81;41.63;98576.06;4973571;28;20242;-57
2023/07/10 08:20:42;;;;;;;3.63;2.30;;;;;;;28.89;42.22;98581.13;4973478;28;20188;-57
2023/07/10 08:23:08;;;;;;;2.40;2.20;;;;;;;28.84;42.14;98567.63;4973304;28;20221;-57
2023/07/10 08:25:33;;;;;;;2.10;2.00;;;;;;;29.03;40.50;98590.69;4973401;28;20717;-57
2023/07/10 08:27:59;;;;;;;3.28;2.17;;;;;;;28.91;40.20;98578.25;5001452;28;20657;-57
2023/07/10 08:30:25;;;;;;;2.55;2.35;;;;;;;29.00;40.81;98583.13;5012364;28;20586;-57
2023/07/10 08:32:51;;;;;;;3.38;2.28;;;;;;;29.13;40.51;98591.00;4992541;28;20191;-57
2023/07/10 08:35:16;;;;;;;6.07;3.00;;;;;;;29.03;40.30;98574.69;4992538;28;20238;-57
2023/07/10 08:37:42;;;;;;;4.03;2.65;;;;;;;29.04;39.34;98573.66;4992873;28;20238;-57
2023/07/10 08:40:31;;;;;;;3.28;2.10;;;;;;;29.15;39.49;98582.81;4992556;28;20273;-57
2023/07/10 08:42:59;;;;;;;3.03;2.30;;;;;;;29.04;39.62;98562.19;4934549;29;20334;-57
2023/07/10 08:45:50;;;;;;;3.53;2.50;;;;;;;29.28;40.13;98586.19;4939585;29;20200;-57
2023/07/10 08:48:42;;;;;;;4.55;2.25;;;;;;;29.36;40.01;98577.88;4954343;28;20216;-57
2023/07/10 08:51:19;;;;;;;3.50;2.60;;;;;;;29.33;39.25;98575.63;4972842;28;20196;-57
2023/07/10 08:54:19;;;;;;;2.88;2.25;;;;;;;29.37;39.41;98584.00;4972877;28;20250;-57
2023/07/10 08:56:45;;;;;;;2.72;2.10;;;;;;;29.40;39.60;98584.41;4915260;29;20756;-58
2023/07/10 08:59:23;;;;;;;4.15;2.80;;;;;;;29.39;39.92;98565.97;4915346;29;20281;-57
2023/07/10 09:01:48;;;;;;;2.53;2.13;;;;;;;29.42;39.14;98565.50;4914259;29;20241;-57
2023/07/10 09:04:18;;;;;;;5.05;2.72;;;;;;;29.61;38.91;98588.53;4927660;29;20599;-57
2023/07/10 09:06:48;;;;;;;2.97;2.42;;;;;;;29.55;38.07;98563.56;4934431;29;20234;-57
2023/07/10 09:09:35;;;;;;;2.70;2.50;;;;;;;29.68;38.38;98583.94;4934145;29;20204;-57
2023/07/10 09:12:10;;;;;;;2.60;2.40;;;;;;;29.55;38.38;98560.88;4934165;29;20235;-57
2023/07/10 09:14:49;;;;;;;4.10;2.10;;;;;;;29.71;38.69;98570.97;4934084;29;20624;-57
2023/07/10 09:17:26;;;;;;;2.47;2.13;;;;;;;29.66;38.58;98578.81;4934063;29;20256;-57
2023/07/10 09:19:53;;;;;;;4.80;2.20;;;;;;;29.59;38.64;98538.06;4951280;28;20254;-57
2023/07/10 09:22:20;;;;;;;2.55;2.42;;;;;;;29.69;38.38;98546.38;4972304;28;20808;-57
2023/07/10 09:24:46;;;;;;;2.50;2.30;;;;;;;29.84;38.33;98562.81;4952922;28;20203;-57
2023/07/10 09:27:14;;;;;;;5.30;2.30;;;;;;;29.97;38.02;98569.88;4960381;28;20195;-56
2023/07/10 09:29:41;;;;;;;2.67;2.47;;;;;;;29.93;37.23;98561.50;4991631;28;20207;-57
2023/07/10 09:32:11;;;;;;;4.63;2.83;;;;;;;29.91;38.30;98544.06;4995655;28;20692;-57
2023/07/10 09:34:43;;;;;;;2.80;2.53;;;;;;;30.03;37.77;98540.41;5010986;28;20672;-57
2023/07/10 09:37:12;;;;;;;2.15;2.05;;;;;;;30.19;37.69;98568.38;5011131;28;20677;-57
2023/07/10 09:39:38;;;;;;;2.60;2.40;;;;;;;30.29;37.02;98568.63;5010922;28;20252;-57
2023/07/10 09:42:04;;;;;;;2.85;2.20;;;;;;;30.26;38.02;98547.75;5011227;28;20182;-57
2023/07/10 09:44:45;;;;;;;3.20;2.63;;;;;;;30.34;37.77;98564.25;4971704;28;20226;-57
2023/07/10 09:47:13;;;;;;;3.25;2.45;;;;;;;30.41;36.69;98558.81;4971837;28;20265;-57
2023/07/10 09:49:56;;;;;;;5.00;2.63;;;;;;;30.40;37.36;98550.00;4971723;28;20685;-57
2023/07/10 09:52:29;;;;;;;3.10;2.78;;;;;;;30.49;37.40;98553.16;4971760;28;20669;-56
2023/07/10 09:55:12;;;;;;;3.42;2.63;;;;;;;30.50;36.83;98554.78;4955186;28;20201;-57
2023/07/10 09:57:50;;;;;;;4.35;2.40;;;;;;;30.62;36.97;98553.78;4977001;28;20233;-57
2023/07/10 10:00:20;;;;;;;2.95;2.47;;;;;;;30.75;36.14;98553.63;4990960;28;20728;-57
2023/07/10 10:02:54;;;;;;;3.00;2.05;;;;;;;30.82;36.44;98548.97;4990920;28;20226;-57
2023/07/10 10:05:20;;;;;;;4.10;2.40;;;;;;;30.97;35.55;98561.91;5006303;28;20192;-57
2023/07/10 10:07:48;;;;;;;3.05;2.60;;;;;;;30.98;35.18;98553.66;5030268;28;20185;-56
2023/07/10 10:10:19;;;;;;;4.00;2.67;;;;;;;31.02;35.21;98549.44;5030189;28;20619;-56
2023/07/10 10:13:01;;;;;;;4.55;1.95;;;;;;;31.02;34.82;98528.06;5029876;28;20185;-57
2023/07/10 10:15:42;;;;;;;2.20;2.00;;;;;;;31.20;33.31;98543.22;5029985;28;20209;-57
2023/07/10 10:18:34;;;;;;;2.20;2.10;;;;;;;31.25;34.49;98527.31;5030462;28;20185;-57
2023/07/10 10:21:01;;;;;;;2.58;2.35;;;;;;;31.47;33.57;98537.16;5030064;28;20202;-57
2023/07/10 10:23:31;;;;;;;2.35;2.00;;;;;;;31.52;33.02;98513.19;5029985;28;20263;-57
2023/07/10 10:26:10;;;;;;;1.95;1.85;;;;;;;31.67;33.52;98529.56;5040176;28;20192;-57
2023/07/10 10:29:05;;;;;;;7.03;2.00;;;;;;;31.83;33.41;98531.53;5010261;28;20190;-57
2023/07/10 10:31:38;;;;;;;1.95;1.77;;;;;;;31.97;32.91;98527.53;5008565;28;20194;-57
2023/07/10 10:34:14;;;;;;;2.65;2.22;;;;;;;32.00;32.41;98515.53;5010169;28;20204;-57
2023/07/10 10:36:59;;;;;;;5.03;2.05;;;;;;;32.15;33.23;98527.34;5010286;28;20174;-56
2023/07/10 10:39:37;;;;;;;3.08;1.75;;;;;;;32.19;32.63;98520.47;5010184;28;20186;-57
2023/07/10 10:42:20;;;;;;;3.25;2.17;;;;;;;32.33;32.57;98532.53;5010112;28;20177;-57
2023/07/10 10:44:56;;;;;;;1.90;1.75;;;;;;;32.29;32.95;98519.88;5010164;28;20178;-57
2023/07/10 10:47:35;;;;;;;2.55;2.45;;;;;;;32.39;32.58;98526.22;5010018;28;20225;-58
2023/07/10 10:50:14;;;;;;;3.10;2.15;;;;;;;32.50;32.34;98509.28;5010099;28;20182;-57
2023/07/10 10:53:06;;;;;;;2.22;2.00;;;;;;;32.87;30.96;98537.25;5026368;28;20681;-58
2023/07/10 10:55:49;;;;;;;3.28;2.25;;;;;;;33.04;30.83;98526.53;5049537;28;20259;-58
2023/07/10 10:58:54;;;;;;;1.98;1.83;;;;;;;33.18;30.72;98517.91;5049514;28;20278;-57
2023/07/10 11:01:25;;;;;;;1.95;1.85;;;;;;;33.09;29.77;98495.22;5009778;28;20227;-57
2023/07/10 11:03:56;;;;;;;2.05;1.90;;;;;;;33.35;29.01;98505.28;5009766;28;20653;-58
2023/07/10 11:06:58;;;;;;;2.13;1.92;;;;;;;33.55;29.66;98505.56;5009976;28;20187;-58
2023/07/10 11:09:32;;;;;;;5.07;2.30;;;;;;;33.70;30.34;98508.44;4970775;28;20230;-57
2023/07/10 11:12:00;;;;;;;2.20;2.00;;;;;;;34.01;30.29;98513.16;4970705;28;20274;-58
2023/07/10 11:14:27;;;;;;;1.80;1.70;;;;;;;34.22;29.58;98517.66;4970574;28;20191;-57
2023/07/10 11:16:53;;;;;;;3.28;2.25;;;;;;;34.39;28.98;98514.91;4970620;28;20187;-58
2023/07/10 11:19:26;;;;;;;2.60;2.08;;;;;;;34.39;29.24;98501.47;4970510;28;20710;-57
2023/07/10 11:21:52;;;;;;;4.15;1.95;;;;;;;34.49;28.72;98486.25;4970519;28;20223;-58
2023/07/10 11:24:23;;;;;;;2.28;2.08;;;;;;;34.79;27.87;98508.03;4970286;28;20224;-61
2023/07/10 11:26:51;;;;;;;1.77;1.67;;;;;;;34.79;28.57;98486.50;4961940;28;20199;-57
2023/07/10 11:29:40;;;;;;;4.10;2.10;;;;;;;34.87;26.71;98488.75;4964729;28;20283;-58
2023/07/10 11:32:18;;;;;;;3.20;1.83;;;;;;;34.98;27.89;98495.78;4974133;28;20674;-57
2023/07/10 11:34:48;;;;;;;1.88;1.77;;;;;;;35.08;27.44;98505.84;4974113;28;20196;-57
2023/07/10 11:37:33;;;;;;;1.70;1.60;;;;;;;35.12;26.71;98499.66;4974417;28;20219;-57
2023/07/10 11:40:24;;;;;;;2.13;1.85;;;;;;;35.12;26.05;98480.84;5053438;28;20184;-57
2023/07/10 11:42:50;;;;;;;4.72;1.88;;;;;;;35.12;26.35;98490.78;5095177;28;20199;-57